Archival Weather

Norman Y Mineta San Jose Intl

San Jose, California (KSJC)

Report from: Thursday, February 8, 2024 5:53 AM PST
Current time: Friday, June 14, 2024 5:22 AM PDT

Current weather – Weather history – Daily summaries
Weather forecast

Temperature4.4°C (39.9°F)
Dew point2.2°C (36.0°F)
Winds Calm
Visibility10 mi. (16.1 km)
Clouds Sky clear
Altimeter29.97 in.Hg (1015 mB)
Relative humidity86 %
Density altitude-1,226 ft. (-374 m)
Sea-level pressure101.5 kPa (1015 mB, 29.96 in.Hg)
Remarks Automated weather observing station with precipitation discriminator
Flight conditions Visual Meteorological Conditions
Raw dataKSJC 081353Z 00000KT 10SM CLR 04/02 A2997 RMK AO2 SLP147 T00440022
An error has occurred. This application may no longer respond until reloaded. Reload 🗙